Time;durP1;ratioP1;P1;durP2;ratioP2;P2;SDS_P1;SDS_P2;PMS_P1;PMS_P2;Temp;Humidity;BMP_temperature;BMP_pressure;BME280_temperature;BME280_humidity;BME280_pressure;Samples;Min_cycle;Max_cycle;Signal;HPM_P1;HPM_P2
2022/03/29 00:00:07;;;;;;;32.00;21.15;;;;;;;9.70;67.09;101648.41;5022117;28;20045;-62
2022/03/29 00:02:32;;;;;;;34.13;21.88;;;;;;;9.66;67.23;101642.56;5017518;28;20071;-62
2022/03/29 00:05:02;;;;;;;33.80;21.23;;;;;;;9.61;67.40;101637.72;5026887;28;20285;-63
2022/03/29 00:07:27;;;;;;;;;;;;;;;9.78;67.30;101636.09;5018251;28;20113;-63
2022/03/29 00:09:52;;;;;;;30.23;21.08;;;;;;;9.57;67.45;101638.97;5020812;28;20027;-63
2022/03/29 00:12:18;;;;;;;35.38;21.38;;;;;;;9.49;67.90;101633.53;5025827;28;20100;-64
2022/03/29 00:14:43;;;;;;;32.60;21.67;;;;;;;9.41;67.99;101636.09;5019935;28;20036;-62
2022/03/29 00:17:08;;;;;;;33.78;22.02;;;;;;;9.38;67.85;101646.13;5026607;28;20477;-63
2022/03/29 00:19:34;;;;;;;34.08;23.08;;;;;;;9.38;68.43;101639.03;5016925;28;20030;-63
2022/03/29 00:21:59;;;;;;;35.90;22.83;;;;;;;9.38;68.29;101631.06;5023891;28;20029;-63
2022/03/29 00:24:24;;;;;;;32.75;22.95;;;;;;;9.34;68.54;101627.03;5008063;28;20045;-63
2022/03/29 00:26:49;;;;;;;34.72;23.67;;;;;;;9.31;68.84;101627.31;5025274;28;20140;-63
2022/03/29 00:29:15;;;;;;;35.47;23.70;;;;;;;9.28;68.94;101619.66;5022753;28;20044;-63
2022/03/29 00:31:40;;;;;;;36.70;24.30;;;;;;;9.23;69.03;101620.06;5023533;28;20029;-63
2022/03/29 00:34:05;;;;;;;36.03;23.17;;;;;;;9.18;69.24;101614.38;5026927;28;20448;-62
2022/03/29 00:36:31;;;;;;;38.05;24.60;;;;;;;9.18;69.55;101616.19;5026602;28;20056;-63
2022/03/29 00:38:56;;;;;;;37.97;24.58;;;;;;;9.17;69.79;101612.69;5026449;28;20075;-63
2022/03/29 00:41:22;;;;;;;35.25;24.08;;;;;;;9.12;69.84;101611.44;5026904;28;20030;-62
2022/03/29 00:43:47;;;;;;;33.83;23.10;;;;;;;9.07;70.08;101611.06;5026853;28;20056;-63
2022/03/29 00:46:12;;;;;;;33.75;23.60;;;;;;;9.04;70.11;101606.88;5025793;28;20271;-63
2022/03/29 00:48:38;;;;;;;36.00;23.60;;;;;;;8.98;70.37;101591.56;5030193;28;20680;-63
2022/03/29 00:51:05;;;;;;;37.97;24.13;;;;;;;8.97;70.70;101596.00;5027506;28;20029;-62
2022/03/29 00:53:31;;;;;;;36.13;23.27;;;;;;;8.90;70.58;101594.88;5026478;28;20103;-63
2022/03/29 00:55:58;;;;;;;36.10;23.63;;;;;;;8.89;70.66;101593.22;5022549;28;20482;-62
2022/03/29 00:58:23;;;;;;;33.53;23.85;;;;;;;8.84;71.12;101587.50;5019112;28;20052;-62
2022/03/29 01:00:49;;;;;;;37.00;23.40;;;;;;;8.83;71.16;101585.84;5022418;28;20457;-62
2022/03/29 01:03:15;;;;;;;38.50;23.88;;;;;;;8.77;71.43;101589.06;5019478;28;20018;-63
2022/03/29 01:05:41;;;;;;;34.78;23.20;;;;;;;8.73;71.55;101584.19;5025855;28;20033;-62
2022/03/29 01:08:06;;;;;;;30.83;21.80;;;;;;;8.70;71.56;101585.31;5019738;28;20021;-62
2022/03/29 01:10:34;;;;;;;31.30;22.88;;;;;;;8.66;72.02;101581.22;5020674;28;20071;-63
2022/03/29 01:12:59;;;;;;;34.50;21.45;;;;;;;8.65;72.01;101584.84;5025990;28;20034;-63
2022/03/29 01:15:30;;;;;;;32.75;21.90;;;;;;;8.62;72.21;101575.38;5022870;28;20037;-62
2022/03/29 01:17:56;;;;;;;35.38;22.30;;;;;;;8.62;72.23;101569.25;5017613;28;20456;-62
2022/03/29 01:20:25;;;;;;;32.72;21.98;;;;;;;8.61;72.33;101573.72;5030586;28;20096;-63
2022/03/29 01:22:52;;;;;;;33.30;23.42;;;;;;;8.57;72.38;101571.50;5017998;28;20033;-63
2022/03/29 01:25:19;;;;;;;36.03;24.00;;;;;;;8.59;72.10;101573.03;5031012;28;20108;-63
2022/03/29 01:27:47;;;;;;;37.35;25.40;;;;;;;8.58;72.43;101571.34;5029127;28;20030;-63
2022/03/29 01:30:13;;;;;;;37.40;26.13;;;;;;;8.53;72.66;101568.28;5028495;28;20112;-63
2022/03/29 01:32:50;;;;;;;37.38;25.33;;;;;;;8.47;72.60;101568.84;5023445;28;20113;-63
2022/03/29 01:35:23;;;;;;;41.92;26.48;;;;;;;8.47;72.76;101571.50;5023272;28;20061;-63
2022/03/29 01:37:49;;;;;;;38.92;25.83;;;;;;;8.44;72.94;101569.13;5030467;28;20040;-63
2022/03/29 01:40:20;;;;;;;39.95;26.92;;;;;;;8.41;73.12;101569.41;5025318;28;20460;-62
2022/03/29 01:42:50;;;;;;;40.10;27.15;;;;;;;8.39;73.26;101568.72;5022612;28;20481;-63
2022/03/29 01:45:16;;;;;;;42.78;27.23;;;;;;;8.40;73.49;101562.44;5024846;28;20053;-63
2022/03/29 01:47:41;;;;;;;43.13;27.75;;;;;;;8.38;73.12;101556.44;5023181;28;20341;-62
2022/03/29 01:50:08;;;;;;;42.40;28.08;;;;;;;8.43;73.50;101556.88;5022939;28;20384;-63
2022/03/29 01:52:42;;;;;;;41.30;27.60;;;;;;;8.43;73.47;101553.41;5022105;28;20029;-62
2022/03/29 01:55:09;;;;;;;44.97;28.02;;;;;;;8.45;73.31;101549.63;5034774;28;20488;-63
2022/03/29 01:57:34;;;;;;;45.50;28.90;;;;;;;8.46;73.52;101542.53;5025816;28;20117;-63
2022/03/29 02:02:43;;;;;;;43.47;29.20;;;;;;;8.44;73.10;101539.19;5023054;28;20072;-62
2022/03/29 02:05:09;;;;;;;41.78;29.08;;;;;;;8.42;73.04;101533.19;5028376;28;20026;-63
2022/03/29 02:07:35;;;;;;;41.40;28.23;;;;;;;8.39;73.16;101531.66;5020194;28;20398;-62
2022/03/29 02:10:00;;;;;;;42.78;28.50;;;;;;;8.39;73.15;101536.97;5030048;28;20029;-63
2022/03/29 02:12:26;;;;;;;43.13;28.83;;;;;;;8.38;73.19;101530.84;5028364;28;20046;-63
2022/03/29 02:14:51;;;;;;;45.50;30.05;;;;;;;8.37;73.44;101520.34;5030619;28;20021;-62
2022/03/29 02:17:16;;;;;;;45.00;29.70;;;;;;;8.35;73.24;101519.66;5022781;28;20026;-62
2022/03/29 02:19:41;;;;;;;47.05;29.73;;;;;;;8.29;73.37;101513.09;5028363;28;20448;-63
2022/03/29 02:22:07;;;;;;;43.60;29.58;;;;;;;8.25;73.68;101519.63;5030659;28;20017;-63
2022/03/29 02:24:32;;;;;;;45.28;30.25;;;;;;;8.20;73.63;101511.28;5028348;28;20719;-62
2022/03/29 02:26:58;;;;;;;44.67;29.05;;;;;;;8.20;73.42;101511.28;5022005;28;20026;-62
2022/03/29 02:29:23;;;;;;;47.92;30.65;;;;;;;8.17;73.46;101510.72;5013886;28;20033;-63
2022/03/29 02:31:48;;;;;;;47.45;30.48;;;;;;;8.13;73.77;101506.69;5011684;28;20038;-63
2022/03/29 02:34:13;;;;;;;48.65;30.45;;;;;;;8.12;73.88;101500.56;5022438;28;20664;-63
2022/03/29 02:36:39;;;;;;;48.53;30.83;;;;;;;8.12;74.01;101507.66;5023538;28;20048;-63
2022/03/29 02:39:04;;;;;;;45.72;30.40;;;;;;;8.11;74.25;101504.19;5024982;28;20028;-63
2022/03/29 02:41:30;;;;;;;47.13;30.20;;;;;;;8.10;74.09;101494.59;5023474;28;20033;-62
2022/03/29 02:43:55;;;;;;;49.42;32.55;;;;;;;8.11;74.07;101487.47;5023018;28;20405;-63
2022/03/29 02:46:20;;;;;;;50.08;30.83;;;;;;;8.13;74.13;101482.88;5029547;28;20026;-63
2022/03/29 02:48:45;;;;;;;48.67;30.95;;;;;;;8.08;74.20;101481.47;5021955;28;20235;-62
2022/03/29 02:51:11;;;;;;;48.42;30.80;;;;;;;8.08;74.29;101481.47;5022439;28;20033;-63
2022/03/29 02:53:36;;;;;;;47.80;30.70;;;;;;;8.05;74.44;101478.25;5026740;28;20045;-63
2022/03/29 02:56:01;;;;;;;47.05;30.52;;;;;;;8.02;74.47;101475.91;5022127;28;20029;-63
2022/03/29 02:58:26;;;;;;;49.30;31.63;;;;;;;7.99;74.42;101484.13;5020067;28;20543;-63
2022/03/29 03:00:52;;;;;;;48.33;30.92;;;;;;;7.98;74.36;101474.50;5018543;28;20029;-63
2022/03/29 03:03:18;;;;;;;48.20;31.40;;;;;;;7.94;74.39;101473.13;5019114;28;20275;-64
2022/03/29 03:05:43;;;;;;;49.63;31.80;;;;;;;7.88;74.39;101465.75;5028960;28;20029;-63
2022/03/29 03:08:08;;;;;;;47.65;30.98;;;;;;;7.89;74.53;101462.13;5015418;28;20036;-62
2022/03/29 03:10:34;;;;;;;46.33;31.02;;;;;;;7.85;74.79;101453.63;5027306;28;20034;-62
2022/03/29 03:12:59;;;;;;;47.45;31.92;;;;;;;7.84;74.67;101461.69;5017067;28;20018;-62
2022/03/29 03:15:25;;;;;;;47.90;31.85;;;;;;;7.81;74.90;101460.19;5025664;28;20032;-63
2022/03/29 03:17:52;;;;;;;45.95;31.85;;;;;;;7.76;74.88;101455.28;5020498;28;20028;-63
2022/03/29 03:20:18;;;;;;;50.05;32.22;;;;;;;7.74;75.14;101445.81;5021193;28;20108;-62
2022/03/29 03:22:44;;;;;;;48.70;32.05;;;;;;;7.70;74.83;101447.91;5021405;28;20117;-62
2022/03/29 03:25:09;;;;;;;50.05;32.35;;;;;;;7.71;75.04;101446.91;5021358;28;20404;-63
2022/03/29 03:27:35;;;;;;;47.40;31.55;;;;;;;7.65;74.84;101441.34;5025487;28;20037;-63
2022/03/29 03:30:05;;;;;;;49.22;32.33;;;;;;;7.66;75.08;101453.59;5025628;28;20119;-63
2022/03/29 03:32:30;;;;;;;50.42;32.40;;;;;;;7.63;74.95;101446.78;5024725;28;20619;-63
2022/03/29 03:34:57;;;;;;;54.65;32.90;;;;;;;7.59;74.94;101452.47;5027255;28;20108;-63
2022/03/29 03:37:22;;;;;;;46.78;31.92;;;;;;;7.56;75.20;101447.47;5023752;28;20179;-63
2022/03/29 03:39:48;;;;;;;50.15;32.63;;;;;;;7.55;75.30;101449.28;5026414;28;20108;-63
2022/03/29 03:42:13;;;;;;;52.60;32.78;;;;;;;7.51;75.34;101447.00;5027065;28;20042;-63
2022/03/29 03:44:39;;;;;;;46.15;32.33;;;;;;;7.49;75.38;101443.66;5022409;28;20532;-62
2022/03/29 03:47:07;;;;;;;49.95;33.20;;;;;;;7.45;75.33;101440.47;5016051;28;20079;-63
2022/03/29 03:49:33;;;;;;;49.05;32.75;;;;;;;7.41;75.39;101447.00;5022345;28;20026;-63
2022/03/29 03:51:58;;;;;;;55.13;33.07;;;;;;;7.42;75.64;101446.88;5020188;28;20082;-62
2022/03/29 03:54:23;;;;;;;50.55;32.97;;;;;;;7.41;75.80;101441.72;5020299;28;20040;-63
2022/03/29 03:56:49;;;;;;;55.03;34.47;;;;;;;7.44;75.87;101436.16;5018281;28;20052;-62
2022/03/29 03:59:14;;;;;;;51.67;33.88;;;;;;;7.47;76.06;101430.59;5012393;28;20036;-62
2022/03/29 04:01:39;;;;;;;55.28;34.47;;;;;;;7.48;76.06;101429.63;5013049;28;20026;-63
2022/03/29 04:04:05;;;;;;;50.53;34.08;;;;;;;7.44;76.26;101428.22;5016325;28;20049;-62
2022/03/29 04:06:30;;;;;;;57.55;35.22;;;;;;;7.44;76.25;101423.78;5017896;28;20087;-63
2022/03/29 04:08:55;;;;;;;60.38;36.85;;;;;;;7.43;76.49;101421.28;5017776;28;20042;-62
2022/03/29 04:11:21;;;;;;;58.13;35.05;;;;;;;7.46;76.57;101421.00;5020305;28;20073;-63
2022/03/29 04:13:46;;;;;;;57.95;36.95;;;;;;;7.42;76.47;101420.44;5025471;28;20075;-62
2022/03/29 04:16:12;;;;;;;64.90;38.40;;;;;;;7.42;76.87;101411.69;5023476;28;20044;-63
2022/03/29 04:18:37;;;;;;;60.83;38.38;;;;;;;7.42;76.97;101415.16;5020366;28;20600;-63
2022/03/29 04:21:04;;;;;;;67.43;38.28;;;;;;;7.42;77.03;101414.31;5018205;28;20021;-63
2022/03/29 04:23:30;;;;;;;68.38;38.90;;;;;;;7.38;77.20;101413.75;5016811;28;20056;-62
2022/03/29 04:25:57;;;;;;;62.83;39.05;;;;;;;7.37;77.38;101412.09;5022596;28;20484;-63
2022/03/29 04:28:22;;;;;;;63.58;39.72;;;;;;;7.38;77.47;101410.28;5016834;28;20387;-62
2022/03/29 04:30:48;;;;;;;68.55;40.90;;;;;;;7.38;77.44;101405.00;5018454;28;20531;-63
2022/03/29 04:33:14;;;;;;;72.30;41.78;;;;;;;7.36;77.67;101405.13;5023752;28;20037;-63
2022/03/29 04:35:40;;;;;;;74.00;40.90;;;;;;;7.34;77.91;101404.44;5020147;28;20029;-62
2022/03/29 04:38:05;;;;;;;77.10;41.97;;;;;;;7.33;78.26;101401.94;5023310;28;20049;-62
2022/03/29 04:40:31;;;;;;;75.78;42.72;;;;;;;7.33;78.12;101404.56;5015522;28;20025;-63
2022/03/29 04:43:00;;;;;;;72.95;41.83;;;;;;;7.33;78.70;101401.94;5022304;28;20112;-63
2022/03/29 04:45:25;;;;;;;75.72;42.47;;;;;;;7.31;78.35;101385.38;5014854;28;20038;-62
2022/03/29 04:47:50;;;;;;;73.47;41.75;;;;;;;7.29;78.83;101382.88;5016428;28;20422;-62
2022/03/29 04:50:17;;;;;;;73.93;41.70;;;;;;;7.31;78.98;101388.84;5021417;28;20021;-63
2022/03/29 04:52:44;;;;;;;70.97;41.50;;;;;;;7.31;78.72;101388.03;5016180;28;20481;-62
2022/03/29 04:55:14;;;;;;;75.40;42.35;;;;;;;7.31;79.09;101394.16;5025886;28;20026;-63
2022/03/29 04:57:41;;;;;;;73.97;42.85;;;;;;;7.30;79.35;101383.72;5021923;28;20115;-63
2022/03/29 05:00:08;;;;;;;76.40;43.80;;;;;;;7.30;79.32;101391.63;5025498;28;20108;-62
2022/03/29 05:02:35;;;;;;;78.13;44.25;;;;;;;7.29;79.44;101377.59;5016260;28;20089;-63
2022/03/29 05:05:01;;;;;;;76.05;42.13;;;;;;;7.28;79.50;101380.38;5028469;28;20374;-62
2022/03/29 05:07:28;;;;;;;76.75;42.83;;;;;;;7.15;79.85;101364.75;5022307;28;20392;-62
2022/03/29 05:09:54;;;;;;;75.60;42.97;;;;;;;7.26;79.80;101374.41;5015324;28;20104;-63
2022/03/29 05:12:19;;;;;;;77.78;43.55;;;;;;;7.26;80.01;101375.22;5020361;28;20496;-63
2022/03/29 05:14:44;;;;;;;80.70;43.70;;;;;;;7.28;80.21;101369.81;5028086;28;20091;-62
2022/03/29 05:17:09;;;;;;;81.10;44.90;;;;;;;7.23;80.14;101356.16;5021241;28;20033;-63
2022/03/29 05:19:35;;;;;;;71.53;41.25;;;;;;;7.24;80.36;101363.13;5027169;28;20551;-62
2022/03/29 05:22:00;;;;;;;71.03;41.07;;;;;;;7.23;80.39;101351.72;5029657;28;20029;-63
2022/03/29 05:24:26;;;;;;;77.22;42.55;;;;;;;7.20;80.50;101353.78;5023326;28;20028;-62
2022/03/29 05:26:51;;;;;;;79.90;43.43;;;;;;;7.18;80.94;101359.19;5023319;28;20030;-63
2022/03/29 05:29:18;;;;;;;81.37;43.77;;;;;;;7.18;80.97;101359.19;5021683;28;20389;-62
2022/03/29 05:31:43;;;;;;;84.40;45.53;;;;;;;7.19;80.77;101360.03;5022970;28;20017;-63
2022/03/29 05:34:09;;;;;;;83.97;44.73;;;;;;;7.22;80.90;101360.59;5024394;28;20504;-62
2022/03/29 05:36:34;;;;;;;82.00;43.72;;;;;;;7.23;81.12;101359.66;5025558;28;20334;-63
2022/03/29 05:39:00;;;;;;;79.60;42.60;;;;;;;7.17;81.28;101340.84;5018171;28;20028;-62
2022/03/29 05:41:25;;;;;;;75.70;41.90;;;;;;;7.19;81.04;101352.09;5020592;28;20491;-62
2022/03/29 05:43:50;;;;;;;76.03;42.40;;;;;;;7.19;81.08;101360.88;5016662;28;20021;-63
2022/03/29 05:49:02;;;;;;;78.50;42.10;;;;;;;7.23;81.16;101358.78;5025606;28;20040;-62
2022/03/29 05:51:28;;;;;;;77.97;41.87;;;;;;;7.22;81.23;101362.41;5026426;28;20045;-62
2022/03/29 05:53:56;;;;;;;75.60;42.23;;;;;;;7.19;81.51;101370.59;5023079;28;20041;-62
2022/03/29 05:56:22;;;;;;;67.97;39.53;;;;;;;7.15;81.79;101360.31;5025690;28;20052;-63
2022/03/29 05:58:51;;;;;;;76.83;40.20;;;;;;;7.15;81.61;101359.47;5023042;28;20143;-62
2022/03/29 06:01:17;;;;;;;66.57;39.00;;;;;;;7.13;81.75;101362.25;5022524;28;20493;-62
2022/03/29 06:03:43;;;;;;;77.90;40.43;;;;;;;7.08;81.82;101369.75;5023449;28;20286;-62
2022/03/29 06:06:08;;;;;;;71.43;40.70;;;;;;;7.08;81.74;101361.00;5026139;28;20404;-62
2022/03/29 06:08:34;;;;;;;81.63;39.70;;;;;;;7.03;81.98;101364.03;5017198;28;20073;-63
2022/03/29 06:11:00;;;;;;;77.73;39.23;;;;;;;7.00;81.97;101366.13;5024965;28;20021;-63
2022/03/29 06:13:25;;;;;;;83.90;42.40;;;;;;;7.00;82.21;101366.13;5022409;28;20021;-63
2022/03/29 06:15:51;;;;;;;79.37;40.53;;;;;;;6.94;82.45;101359.56;5029211;28;20039;-63
2022/03/29 06:18:16;;;;;;;87.07;41.77;;;;;;;6.93;82.40;101360.50;5023222;28;20022;-63
2022/03/29 06:20:42;;;;;;;88.73;42.17;;;;;;;6.94;82.83;101370.13;5014677;28;20032;-62
2022/03/29 06:23:07;;;;;;;91.30;42.70;;;;;;;6.94;82.79;101366.63;5028315;28;20040;-62
2022/03/29 06:25:34;;;;;;;81.87;42.30;;;;;;;6.94;83.14;101364.84;5026001;28;20033;-62
2022/03/29 06:27:59;;;;;;;87.37;41.83;;;;;;;7.00;83.25;101366.13;5018563;28;20030;-63
2022/03/29 06:30:24;;;;;;;84.57;42.53;;;;;;;6.99;83.35;101364.44;5015845;28;20088;-62
2022/03/29 06:32:51;;;;;;;87.10;41.60;;;;;;;6.97;83.14;101369.03;5022308;28;20031;-62
2022/03/29 06:35:22;;;;;;;88.87;41.43;;;;;;;6.96;83.32;101368.19;5028474;28;20033;-62
2022/03/29 06:37:51;;;;;;;97.97;41.67;;;;;;;6.95;83.06;101366.53;5026665;28;20460;-63
2022/03/29 06:40:17;;;;;;;;;;;;;;;7.06;83.23;101370.84;5020097;28;20088;-62
2022/03/29 06:42:43;;;;;;;84.70;42.00;;;;;;;6.99;83.19;101367.94;5023439;28;20500;-62
2022/03/29 06:45:09;;;;;;;115.50;42.00;;;;;;;6.99;83.44;101365.28;5018838;28;20092;-61
2022/03/29 06:50:18;;;;;;;81.53;41.77;;;;;;;6.99;83.68;101370.56;5028329;28;20040;-63
2022/03/29 06:52:45;;;;;;;83.80;40.53;;;;;;;7.02;83.80;101359.72;5029175;28;20033;-62
2022/03/29 06:55:18;;;;;;;87.47;42.13;;;;;;;7.03;83.87;101366.69;5028856;28;20043;-62
2022/03/29 06:57:44;;;;;;;95.40;42.83;;;;;;;7.03;83.78;101366.69;5028305;28;20057;-62
2022/03/29 07:00:10;;;;;;;82.22;41.05;;;;;;;7.07;83.72;101365.44;5027532;28;20098;-62
2022/03/29 07:02:36;;;;;;;90.32;42.63;;;;;;;7.09;83.99;101366.13;5025401;28;20045;-63
2022/03/29 07:05:03;;;;;;;93.47;42.97;;;;;;;7.09;83.97;101360.03;5028693;28;20037;-62
2022/03/29 07:07:28;;;;;;;93.17;44.47;;;;;;;7.11;84.24;101355.44;5028171;28;20053;-62
2022/03/29 07:12:49;;;;;;;94.40;45.90;;;;;;;7.17;84.21;101367.25;5021655;28;20059;-63
2022/03/29 07:15:16;;;;;;;93.30;45.23;;;;;;;7.16;83.82;101366.44;5020847;28;20022;-62
2022/03/29 07:17:41;;;;;;;91.57;44.93;;;;;;;7.21;84.40;101366.00;5015757;28;20069;-62
2022/03/29 07:20:07;;;;;;;96.07;43.93;;;;;;;7.19;83.99;101355.59;5028306;28;20071;-62
2022/03/29 07:22:32;;;;;;;90.47;43.72;;;;;;;7.17;83.76;101357.53;5028261;28;20029;-63
2022/03/29 07:24:57;;;;;;;90.53;43.93;;;;;;;7.15;84.07;101367.41;5023516;28;20037;-62
2022/03/29 07:27:23;;;;;;;84.60;43.27;;;;;;;7.13;84.18;101366.69;5027895;28;20629;-62
2022/03/29 07:29:49;;;;;;;85.83;43.80;;;;;;;7.13;84.03;101369.34;5027763;28;20025;-63
2022/03/29 07:32:15;;;;;;;83.53;41.70;;;;;;;7.13;83.97;101364.06;5028176;28;20068;-62
2022/03/29 07:34:40;;;;;;;85.70;42.80;;;;;;;7.12;84.08;101371.16;5019931;28;20687;-62
2022/03/29 07:37:06;;;;;;;86.37;42.57;;;;;;;7.14;84.19;101369.19;5023180;28;20116;-62
2022/03/29 07:39:31;;;;;;;90.30;42.67;;;;;;;7.18;84.22;101363.66;5027422;28;20378;-62
2022/03/29 07:41:56;;;;;;;82.67;41.37;;;;;;;7.22;84.12;101365.88;5027301;28;20030;-62
2022/03/29 07:44:22;;;;;;;90.57;43.73;;;;;;;7.30;84.41;101373.97;5018674;28;20037;-62
2022/03/29 07:46:47;;;;;;;93.70;43.30;;;;;;;7.32;84.13;101373.84;5023652;28;20469;-63
2022/03/29 07:49:13;;;;;;;95.57;44.10;;;;;;;7.30;84.01;101366.06;5025762;28;20030;-62
2022/03/29 07:51:38;;;;;;;95.50;44.63;;;;;;;7.33;84.20;101384.28;5027991;28;20021;-62
2022/03/29 07:54:04;;;;;;;99.43;44.77;;;;;;;7.36;84.12;101368.16;5028280;28;20029;-63
2022/03/29 07:56:29;;;;;;;99.00;44.40;;;;;;;7.39;84.18;101372.31;5027365;28;20033;-62
2022/03/29 07:58:56;;;;;;;101.87;45.30;;;;;;;7.38;84.04;101366.19;5026163;28;20040;-63
2022/03/29 08:01:21;;;;;;;93.27;44.63;;;;;;;7.40;83.98;101360.78;5013956;28;20417;-62
2022/03/29 08:03:47;;;;;;;97.43;44.00;;;;;;;7.45;83.83;101369.13;5027717;28;20489;-62
2022/03/29 08:06:13;;;;;;;93.95;44.22;;;;;;;7.48;83.99;101366.19;5027661;28;20049;-62
2022/03/29 08:08:38;;;;;;;88.27;43.43;;;;;;;7.54;83.88;101368.31;5026431;28;20736;-63
2022/03/29 08:11:04;;;;;;;95.93;45.40;;;;;;;7.52;83.95;101367.63;5027407;28;20029;-63
2022/03/29 08:13:30;;;;;;;90.83;44.70;;;;;;;7.52;83.72;101362.34;5021219;28;20478;-63
2022/03/29 08:15:56;;;;;;;87.87;44.20;;;;;;;7.52;83.82;101356.19;5025869;28;20049;-63
2022/03/29 08:18:22;;;;;;;85.88;43.30;;;;;;;7.51;83.87;101363.28;5026898;28;20040;-62
2022/03/29 08:20:47;;;;;;;81.10;42.73;;;;;;;7.52;83.93;101367.63;5023580;28;20041;-63
2022/03/29 08:23:13;;;;;;;80.15;42.03;;;;;;;7.55;84.03;101355.94;5027431;28;20563;-62
2022/03/29 08:25:40;;;;;;;83.93;42.42;;;;;;;7.55;84.18;101355.94;5027606;28;20076;-62
2022/03/29 08:28:06;;;;;;;77.65;42.05;;;;;;;7.60;83.99;101359.00;5012814;28;20025;-63
2022/03/29 08:30:32;;;;;;;76.22;41.20;;;;;;;7.59;83.96;101358.16;5031520;28;20035;-63
2022/03/29 08:32:59;;;;;;;79.85;42.00;;;;;;;7.60;83.85;101356.34;5027097;28;20021;-63
2022/03/29 08:35:25;;;;;;;77.00;40.42;;;;;;;7.60;83.96;101354.53;5027322;28;20033;-63
2022/03/29 08:37:51;;;;;;;77.38;39.97;;;;;;;7.59;84.04;101352.03;5026943;28;20493;-62
2022/03/29 08:40:21;;;;;;;75.35;39.75;;;;;;;7.58;83.72;101355.66;5026282;28;20101;-62
2022/03/29 08:42:49;;;;;;;74.28;39.80;;;;;;;7.58;84.01;101361.78;5015999;28;20044;-63
2022/03/29 08:45:16;;;;;;;73.88;40.65;;;;;;;7.59;83.69;101360.81;5027265;28;20029;-62
2022/03/29 08:47:44;;;;;;;77.20;39.60;;;;;;;7.55;83.76;101356.78;5026832;28;20061;-63
2022/03/29 08:50:12;;;;;;;74.93;39.20;;;;;;;7.54;83.78;101365.66;5026458;28;20025;-63
2022/03/29 08:52:39;;;;;;;74.00;39.35;;;;;;;7.58;83.50;101364.41;5019977;28;20029;-63
2022/03/29 08:55:05;;;;;;;73.70;39.00;;;;;;;7.55;83.52;101369.16;5026426;28;20030;-62
2022/03/29 08:57:30;;;;;;;79.90;39.67;;;;;;;7.53;83.69;101352.59;5027134;28;20030;-62
2022/03/29 08:59:57;;;;;;;75.68;38.75;;;;;;;7.53;83.51;101350.78;5019733;28;20041;-62
2022/03/29 09:02:22;;;;;;;74.63;39.15;;;;;;;7.49;83.52;101346.72;5026502;28;20025;-62
2022/03/29 09:05:07;;;;;;;76.13;39.53;;;;;;;7.50;83.75;101358.13;5026928;28;20078;-62
2022/03/29 09:07:45;;;;;;;77.97;40.20;;;;;;;7.54;83.80;101351.63;5017329;28;20037;-63
2022/03/29 09:10:12;;;;;;;76.80;38.33;;;;;;;7.49;83.69;101359.94;5026188;28;20025;-63
2022/03/29 09:12:38;;;;;;;79.00;40.20;;;;;;;7.52;84.02;101353.53;5025595;28;20029;-62
2022/03/29 09:15:04;;;;;;;72.13;37.58;;;;;;;7.58;83.96;101359.13;5026080;28;20029;-63
2022/03/29 09:17:34;;;;;;;75.93;39.05;;;;;;;7.62;83.87;101357.88;5027249;28;20040;-63
2022/03/29 09:20:02;;;;;;;75.43;38.78;;;;;;;7.65;84.08;101356.75;5022619;28;20030;-62
2022/03/29 09:22:36;;;;;;;74.50;39.50;;;;;;;7.68;83.99;101359.97;5020472;28;20034;-61
2022/03/29 09:25:02;;;;;;;77.40;40.07;;;;;;;7.70;83.88;101359.81;5026687;28;20025;-63
2022/03/29 09:27:27;;;;;;;74.60;39.30;;;;;;;7.70;83.78;101355.38;5026703;28;20460;-63
2022/03/29 09:30:06;;;;;;;68.68;38.70;;;;;;;7.75;83.87;101363.72;5026225;28;20049;-62
2022/03/29 09:32:32;;;;;;;66.90;37.08;;;;;;;7.76;83.74;101362.75;5026374;28;20028;-63
2022/03/29 09:35:05;;;;;;;71.60;37.83;;;;;;;7.81;83.47;101357.06;5026168;28;20025;-62
2022/03/29 09:37:36;;;;;;;67.32;37.03;;;;;;;7.87;83.50;101363.59;5026572;28;20026;-62
2022/03/29 09:40:02;;;;;;;72.07;38.35;;;;;;;7.87;83.38;101360.94;5028936;28;20239;-63
2022/03/29 09:42:28;;;;;;;69.78;37.90;;;;;;;7.94;83.59;101346.19;5030263;28;20525;-62
2022/03/29 09:44:54;;;;;;;70.90;37.95;;;;;;;7.94;83.42;101343.53;5025063;28;20140;-63
2022/03/29 09:47:21;;;;;;;67.65;37.45;;;;;;;7.94;83.37;101341.72;5030499;28;20606;-63
2022/03/29 09:49:59;;;;;;;63.42;36.15;;;;;;;7.98;83.04;101343.09;5029150;28;20477;-63
2022/03/29 09:52:34;;;;;;;62.92;35.28;;;;;;;7.99;82.67;101339.47;5030566;28;20074;-62
2022/03/29 09:55:16;;;;;;;63.35;35.63;;;;;;;8.05;82.78;101338.91;5028212;28;20104;-63
2022/03/29 09:57:51;;;;;;;66.10;36.55;;;;;;;8.04;82.53;101337.25;5030216;28;20033;-62
2022/03/29 10:00:32;;;;;;;62.78;35.38;;;;;;;8.00;82.78;101327.09;5029357;28;20053;-63
2022/03/29 10:02:58;;;;;;;64.22;36.67;;;;;;;8.07;82.57;101330.84;5026609;28;20565;-62
2022/03/29 10:05:25;;;;;;;66.38;36.97;;;;;;;8.08;83.04;101322.75;5024510;28;20017;-63
2022/03/29 10:10:49;;;;;;;65.93;35.55;;;;;;;8.22;82.70;101313.53;5017338;28;20041;-63
2022/03/29 10:13:16;;;;;;;62.35;35.75;;;;;;;8.26;82.62;101312.28;5027093;28;20180;-62
2022/03/29 10:15:42;;;;;;;69.32;36.42;;;;;;;8.32;82.48;101310.84;5017790;28;20109;-62
2022/03/29 10:18:08;;;;;;;67.22;36.13;;;;;;;8.40;82.79;101307.53;5026012;28;20503;-63
2022/03/29 10:20:34;;;;;;;67.78;36.03;;;;;;;8.45;82.52;101308.78;5025701;28;20040;-63
2022/03/29 10:23:00;;;;;;;64.43;34.55;;;;;;;8.50;82.29;101305.69;5021546;28;20029;-63
2022/03/29 10:25:27;;;;;;;64.68;34.83;;;;;;;8.53;82.41;101310.69;5020666;28;20029;-63
2022/03/29 10:27:54;;;;;;;60.40;34.72;;;;;;;8.55;81.77;101316.66;5011831;28;20180;-63
2022/03/29 10:30:40;;;;;;;61.90;34.00;;;;;;;8.62;81.74;101310.63;5022625;28;20021;-63
2022/03/29 10:33:23;;;;;;;67.90;35.25;;;;;;;8.63;81.97;101307.00;5027185;28;20258;-63
2022/03/29 10:36:09;;;;;;;65.80;36.10;;;;;;;8.62;81.72;101312.44;5025396;28;20026;-63
2022/03/29 10:38:46;;;;;;;61.05;35.53;;;;;;;8.65;81.61;101306.84;5028213;28;20049;-63
2022/03/29 10:41:29;;;;;;;64.57;36.22;;;;;;;8.75;81.73;101306.84;5020979;28;20030;-62
2022/03/29 10:44:08;;;;;;;62.15;35.50;;;;;;;8.76;81.37;101295.25;5027857;28;20041;-63
2022/03/29 10:46:45;;;;;;;64.20;35.25;;;;;;;8.82;81.28;101298.13;5028723;28;20121;-63
2022/03/29 10:49:20;;;;;;;64.38;35.70;;;;;;;8.86;81.15;101302.16;5013072;28;20441;-64
2022/03/29 10:51:53;;;;;;;63.22;34.65;;;;;;;8.91;80.74;101302.53;5020822;28;20074;-64
2022/03/29 10:54:44;;;;;;;61.10;34.80;;;;;;;8.99;80.65;101300.00;5018951;28;20033;-64
2022/03/29 10:57:28;;;;;;;64.65;35.58;;;;;;;8.99;80.41;101299.16;5015949;28;20033;-64
2022/03/29 11:00:06;;;;;;;63.03;35.10;;;;;;;8.98;80.46;101292.22;5022106;28;20041;-64
2022/03/29 11:02:32;;;;;;;65.25;35.60;;;;;;;8.97;80.35;101290.53;5035512;28;20037;-64
2022/03/29 11:05:12;;;;;;;66.35;36.33;;;;;;;8.98;80.16;101284.25;5028790;28;20060;-63
2022/03/29 11:07:52;;;;;;;68.50;37.22;;;;;;;9.03;79.83;101275.88;5025627;28;20132;-64
2022/03/29 11:10:19;;;;;;;66.30;36.00;;;;;;;9.04;79.94;101280.19;5016218;28;20021;-63
2022/03/29 11:12:51;;;;;;;67.40;37.15;;;;;;;9.06;79.41;101275.56;5018411;28;20071;-63
2022/03/29 11:15:36;;;;;;;61.97;36.28;;;;;;;9.14;79.71;101270.34;5015837;28;20083;-64
2022/03/29 11:18:22;;;;;;;63.83;35.45;;;;;;;9.26;79.79;101271.78;5026289;28;20480;-63
2022/03/29 11:20:54;;;;;;;59.63;34.85;;;;;;;9.40;79.39;101257.16;5017907;28;20064;-64
2022/03/29 11:23:31;;;;;;;59.90;33.65;;;;;;;9.53;79.37;101257.59;5015107;28;20435;-64
2022/03/29 11:25:56;;;;;;;62.30;36.00;;;;;;;9.61;78.76;101253.22;5027322;28;20025;-64
2022/03/29 11:28:22;;;;;;;68.00;37.53;;;;;;;9.72;78.83;101253.94;5014231;28;20505;-64
2022/03/29 11:30:54;;;;;;;61.30;36.35;;;;;;;9.81;77.94;101259.13;5026830;28;20041;-64